Latest Weather Observations for Scotts Peak

IDT60801

Issued at 1:11 pm EDT Monday 30 November 2020 (issued every 10 minutes, with the page automatically refreshed every 10 minutes)

About weather observations | Map of weather stations | Latest weather observations for TAS | Other Formats
Station Details ID: 097083 Name: SCOTTS PEAK DAM Lat: -43.04 Lon: 146.27 Height: 408.0 m
Data from the previous 72 hours. | See also: Recent months at Scotts Peak
Date/Time
EDT
Temp
°C
App
Temp
°C
Dew
Point
°C
Rel
Hum
%
Delta-T
°C
Wind Press
QNH
hPa
Press
MSL
hPa
Rain since
9am
mm
Dir  Spd
km/h
Gust
km/h
Spd
kts
Gust
kts
30/01:00pm 20.4 16.8 8.4 46 6.4 NW 17 20 9 11 - - 0.0
30/12:30pm 19.8 15.4 7.5 45 6.4 NNW 20 28 11 15 - - 0.0
30/12:00pm 19.3 15.1 8.3 49 5.8 NNW 20 24 11 13 - - 0.0
30/11:30am 17.7 13.6 8.6 55 4.8 NNW 20 24 11 13 - - 0.0
30/11:00am 15.0 9.5 7.5 61 3.8 NNW 26 33 14 18 - - 0.0
30/10:30am 15.2 10.1 7.5 60 3.9 N 24 30 13 16 - - 0.0
30/10:00am 14.3 8.6 6.9 61 3.7 NW 26 35 14 19 - - 0.0
30/09:30am 14.7 8.9 6.3 57 4.1 NW 26 33 14 18 - - 0.0
30/09:00am 13.7 9.3 6.6 62 3.5 NW 19 24 10 13 - - 0.6
30/08:30am 12.5 8.0 6.1 65 3.1 NNW 19 24 10 13 - - 0.6
30/08:00am 12.0 8.0 6.7 70 2.6 NNW 17 24 9 13 - - 0.6
30/07:30am 11.1 7.1 6.8 75 2.1 NNW 17 20 9 11 - - 0.6
30/07:00am 10.4 5.7 6.2 75 2.0 NNW 20 30 11 16 - - 0.6
30/06:30am 9.7 5.0 6.1 78 1.7 NNW 20 26 11 14 - - 0.6
30/06:00am 9.3 4.5 5.7 78 1.7 NNW 20 26 11 14 - - 0.6
30/05:30am 9.1 3.8 5.1 76 1.8 NW 22 28 12 15 - - 0.6
30/05:00am 9.0 3.0 5.4 78 1.7 NW 26 32 14 17 - - 0.6
30/04:30am 8.6 4.8 5.9 83 1.3 NW 15 20 8 11 - - 0.6
30/04:00am 8.7 4.9 5.6 81 1.4 WNW 15 19 8 10 - - 0.6
30/03:30am 8.1 4.4 6.1 87 0.9 NW 15 20 8 11 - - 0.6
30/03:00am 7.8 3.6 5.6 86 1.0 WNW 17 26 9 14 - - 0.6
30/02:30am 7.0 3.9 5.5 90 0.7 WNW 11 15 6 8 - - 0.6
30/02:00am 7.8 3.2 6.4 91 0.7 WNW 20 24 11 13 - - 0.6
30/01:30am 8.1 2.9 7.2 94 0.4 NW 24 26 13 14 - - 0.6
30/01:00am 8.3 3.3 8.0 98 0.1 NW 24 30 13 16 - - 0.6
30/12:30am 8.2 3.9 7.9 98 0.1 NW 20 24 11 13 - - 0.6
30/12:00am 8.1 3.6 6.9 92 0.6 WNW 20 22 11 12 - - 0.6
 
Date/Time
EDT
Temp
°C
App
Temp
°C
Dew
Point
°C
Rel
Hum
%
Delta-T
°C
Wind Press
QNH
hPa
Press
MSL
hPa
Rain since
9am
mm
Dir  Spd
km/h
Gust
km/h
Spd
kts
Gust
kts
29/11:30pm 8.9 5.3 8.3 96 0.3 WNW 17 22 9 12 - - 0.6
29/11:00pm 8.8 6.2 7.9 94 0.4 W 11 24 6 13 - - 0.6
29/10:30pm 9.1 4.9 8.3 95 0.4 NW 20 28 11 15 - - 0.6
29/10:00pm 8.8 5.0 7.4 91 0.7 NW 17 20 9 11 - - 0.6
29/09:30pm 8.6 5.4 6.9 89 0.8 NW 13 15 7 8 - - 0.6
29/09:00pm 8.8 4.3 6.1 83 1.3 W 19 24 10 13 - - 0.6
29/08:30pm 8.8 3.0 6.3 84 1.2 W 26 33 14 18 - - 0.6
29/08:00pm 8.8 3.0 6.3 84 1.2 W 26 33 14 18 - - 0.6
29/07:30pm 8.9 2.7 8.0 94 0.4 W 30 41 16 22 - - 0.6
29/07:00pm 9.6 3.9 8.5 93 0.5 WSW 28 43 15 23 - - 0.2
29/06:30pm 11.4 7.0 6.5 72 2.4 WSW 19 28 10 15 - - 0.2
29/06:00pm 11.6 6.5 6.1 69 2.6 W 22 33 12 18 - - 0.2
29/05:32pm 13.3 6.3 5.9 61 3.6 WNW 32 50 17 27 - - 0.2
29/05:30pm 13.2 6.0 5.9 61 3.5 W 33 50 18 27 - - 0.2
29/05:28pm 13.7 6.7 6.1 60 3.7 W 32 50 17 27 - - 0.2
29/05:00pm 12.3 5.7 6.1 66 3.0 WNW 30 43 16 23 - - 0.2
29/04:30pm 13.0 5.5 6.4 64 3.2 WNW 35 50 19 27 - - 0.2
29/04:00pm 12.9 5.8 6.5 65 3.1 WNW 33 50 18 27 - - 0.2
29/03:50pm 14.7 8.0 8.0 64 3.4 WNW 33 54 18 29 - - 0.2
29/03:30pm 12.6 5.8 7.9 73 2.4 NW 33 43 18 23 - - 0.2
29/03:00pm 11.0 4.6 8.6 85 1.2 WNW 32 44 17 24 - - 0.2
29/02:47pm 11.1 4.0 6.5 73 2.2 W 33 54 18 29 - - 0.2
29/02:30pm 11.3 4.3 6.0 70 2.5 WNW 32 44 17 24 - - 0.2
29/02:00pm 11.9 5.3 6.2 68 2.7 W 30 52 16 28 - - 0.2
29/01:55pm 11.4 5.1 5.5 67 2.8 W 28 48 15 26 - - 0.2
29/01:30pm 14.1 9.6 9.9 76 2.2 W 24 33 13 18 - - 0.2
29/01:00pm 10.0 3.2 7.6 85 1.2 WSW 33 46 18 25 - - 0.0
29/12:30pm 13.1 6.0 6.5 64 3.2 W 33 48 18 26 - - 0.0
29/12:00pm 13.6 7.8 7.8 68 2.9 W 28 41 15 22 - - 0.0
29/11:30am 9.1 2.4 8.3 95 0.4 WSW 33 48 18 26 - - 0.0
29/11:07am 9.1 2.5 7.9 92 0.6 WSW 32 50 17 27 - - 0.0
29/11:00am 10.3 4.0 7.2 81 1.5 WSW 30 43 16 23 - - 0.0
29/10:56am 10.3 3.8 6.6 78 1.8 W 30 43 16 23 - - 0.0
29/10:30am 13.2 9.2 6.8 65 3.2 W 17 24 9 13 - - 0.0
29/10:00am 11.3 7.2 6.4 72 2.4 WSW 17 30 9 16 - - 0.0
29/09:30am 13.2 9.6 9.8 80 1.8 WNW 19 32 10 17 - - 0.0
29/09:00am 10.8 4.8 7.1 78 1.8 WSW 28 35 15 19 - - 0.0
29/08:30am 10.6 4.9 8.4 86 1.1 SW 28 37 15 20 - - 0.0
29/08:00am 10.2 7.5 8.8 91 0.7 WSW 13 28 7 15 - - 0.0
29/07:30am 9.9 7.4 9.6 98 0.2 W 13 19 7 10 - - 0.0
29/07:00am 9.9 6.5 9.3 96 0.3 W 17 20 9 11 - - 0.0
29/06:30am 9.7 7.5 9.4 98 0.2 WSW 11 19 6 10 - - 0.0
29/06:00am 9.8 7.2 9.2 96 0.3 SW 13 20 7 11 - - 0.0
29/05:30am 9.8 7.5 8.9 94 0.5 WSW 11 15 6 8 - - 0.0
29/05:00am 9.7 6.2 8.6 93 0.5 WSW 17 20 9 11 - - 0.0
29/04:30am 9.4 7.3 8.2 92 0.6 SSW 9 13 5 7 - - 0.0
29/04:00am 9.4 7.9 8.3 93 0.5 SSW 6 13 3 7 - - 0.0
29/03:30am 9.6 7.1 8.4 92 0.6 SW 11 17 6 9 - - 0.0
29/03:00am 9.1 7.1 8.5 96 0.3 SSE 9 11 5 6 - - 0.0
29/02:30am 8.8 7.1 8.2 96 0.3 ESE 7 9 4 5 - - 0.0
29/02:00am 9.3 7.5 7.9 91 0.7 E 7 9 4 5 - - 0.0
29/01:30am 9.8 8.0 8.1 89 0.8 SE 7 9 4 5 - - 0.0
29/01:00am 9.7 8.1 8.0 89 0.8 SSW 6 11 3 6 - - 0.0
29/12:30am 10.1 7.4 7.3 83 1.4 W 11 20 6 11 - - 0.0
29/12:00am 9.9 7.0 8.2 89 0.8 W 13 22 7 12 - - 0.0
 
Date/Time
EDT
Temp
°C
App
Temp
°C
Dew
Point
°C
Rel
Hum
%
Delta-T
°C
Wind Press
QNH
hPa
Press
MSL
hPa
Rain since
9am
mm
Dir  Spd
km/h
Gust
km/h
Spd
kts
Gust
kts
28/11:30pm 10.6 7.7 6.7 77 1.9 W 11 19 6 10 - - 0.0
28/11:00pm 10.3 7.3 7.5 83 1.4 W 13 17 7 9 - - 0.0
28/10:30pm 10.4 7.4 7.5 82 1.4 W 13 17 7 9 - - 0.0
28/10:00pm 10.9 9.6 7.6 80 1.6 WNW 4 9 2 5 - - 0.0
28/09:30pm 11.0 8.8 7.7 80 1.6 SW 9 19 5 10 - - 0.0
28/09:00pm 11.2 7.6 8.2 82 1.5 W 17 22 9 12 - - 0.0
28/08:30pm 11.5 8.6 8.2 80 1.7 WSW 13 22 7 12 - - 0.0
28/08:00pm 12.3 8.1 8.2 76 2.1 WSW 20 28 11 15 - - 0.0
28/07:30pm 13.4 9.2 7.4 67 3.0 W 19 28 10 15 - - 0.0
28/07:00pm 14.8 9.5 6.9 59 3.9 WNW 24 28 13 15 - - 0.0
28/06:30pm 15.0 10.0 6.3 56 4.3 WNW 22 28 12 15 - - 0.0
28/06:00pm 15.3 10.0 5.0 50 5.0 WNW 22 30 12 16 - - 0.0
28/05:30pm 16.3 9.4 4.7 46 5.6 NW 30 37 16 20 - - 0.0
28/05:00pm 17.8 10.8 6.0 46 5.9 NW 32 37 17 20 - - 0.0
28/04:30pm 17.1 11.6 5.7 47 5.6 WNW 24 37 13 20 - - 0.0
28/04:00pm 17.7 11.5 6.3 47 5.7 W 28 37 15 20 - - 0.0
28/03:58pm 17.4 11.5 5.7 46 5.8 WNW 26 35 14 19 - - 0.0
28/03:30pm 17.0 8.6 5.6 47 5.6 WNW 39 54 21 29 - - 0.0
28/03:24pm 18.1 10.3 5.0 42 6.4 WNW 35 54 19 29 - - 0.0
28/03:00pm 16.3 10.0 5.9 50 5.1 WNW 28 41 15 22 - - 0.0
28/02:44pm 18.2 11.7 6.4 46 6.0 WNW 30 48 16 26 - - 0.0
28/02:30pm 16.2 9.6 6.1 51 5.0 WNW 30 43 16 23 - - 0.0
28/02:00pm 16.1 8.7 6.8 54 4.7 WNW 35 50 19 27 - - 0.0
28/01:30pm 17.5 9.7 6.7 49 5.5 WNW 37 50 20 27 - - 0.0
28/01:00pm 17.8 11.8 8.6 55 4.8 NW 30 44 16 24 - - 0.0
28/12:30pm 15.5 7.9 7.5 59 4.1 NW 37 50 20 27 - - 0.0
28/12:00pm 14.8 6.6 6.4 57 4.2 NW 39 57 21 31 - - 0.0
28/11:52am 14.9 6.6 6.0 55 4.4 NW 39 57 21 31 - - 0.0
28/11:30am 13.6 5.1 5.3 57 4.0 WNW 39 52 21 28 - - 0.0
28/11:22am 13.4 4.6 5.6 59 3.8 WNW 41 54 22 29 - - 0.0
28/11:14am 13.7 7.4 5.8 59 3.8 NW 28 50 15 27 - - 0.0
28/11:00am 14.4 6.6 6.5 59 3.9 NW 37 50 20 27 - - 0.0
28/10:30am 14.0 7.1 7.1 63 3.4 NW 33 46 18 25 - - 0.0
28/10:00am 13.5 6.3 5.9 60 3.7 NW 33 43 18 23 - - 0.0
28/09:30am 13.4 6.2 5.8 60 3.7 WNW 33 44 18 24 - - 0.0
28/09:00am 13.7 6.0 7.2 65 3.2 NW 37 48 20 26 - - 0.0
28/08:30am 12.6 5.9 7.3 70 2.6 NW 32 41 17 22 - - 0.0
28/08:00am 11.5 3.4 5.2 65 3.0 NW 37 43 20 23 - - 0.0
28/07:30am 10.3 4.1 6.1 75 2.0 NW 28 37 15 20 - - 0.0
28/07:00am 9.6 2.2 6.9 83 1.3 NW 35 41 19 22 - - 0.0
28/06:30am 9.5 3.2 7.4 87 1.0 NW 30 33 16 18 - - 0.0
28/06:00am 9.2 4.2 8.0 92 0.6 NW 24 28 13 15 - - 0.0
28/05:30am 9.2 3.3 7.3 88 0.9 NW 28 35 15 19 - - 0.0
28/05:00am 9.4 3.4 7.0 85 1.2 WNW 28 35 15 19 - - 0.0
28/04:30am 9.8 3.7 6.7 81 1.5 NW 28 37 15 20 - - 0.0
28/04:00am 10.0 3.7 7.3 83 1.3 NW 30 41 16 22 - - 0.0
28/03:30am 10.0 1.9 6.9 81 1.5 NW 39 52 21 28 - - 0.0
28/03:08am 10.2 2.7 6.5 78 1.8 NW 35 54 19 29 - - 0.0
28/03:00am 10.1 2.7 6.8 80 1.6 WNW 35 50 19 27 - - 0.0
28/02:30am 10.0 3.0 6.9 81 1.5 NW 33 46 18 25 - - 0.0
28/02:00am 10.2 5.3 8.3 88 0.9 NW 24 35 13 19 - - 0.0
28/01:30am 10.1 4.8 7.0 81 1.5 WNW 24 33 13 18 - - 0.0
28/01:00am 10.6 3.4 7.8 83 1.4 NW 35 43 19 23 - - 0.0
28/12:45am 10.5 4.3 7.7 83 1.4 NW 30 52 16 28 - - 0.0
28/12:30am 10.5 5.5 7.9 84 1.3 NW 24 30 13 16 - - 0.0
28/12:00am 10.6 6.5 8.0 84 1.3 NW 19 26 10 14 - - 0.0
 
Date/Time
EDT
Temp
°C
App
Temp
°C
Dew
Point
°C
Rel
Hum
%
Delta-T
°C
Wind Press
QNH
hPa
Press
MSL
hPa
Rain since
9am
mm
Dir  Spd
km/h
Gust
km/h
Spd
kts
Gust
kts
27/11:30pm 10.7 5.7 7.9 83 1.4 NW 24 30 13 16 - - 0.0
27/11:00pm 10.8 5.3 7.5 80 1.6 WNW 26 39 14 21 - - 0.0
27/10:30pm 10.9 4.6 7.2 78 1.8 WNW 30 37 16 20 - - 0.0
27/10:00pm 11.3 3.6 7.2 76 2.0 WNW 37 48 20 26 - - 0.0
27/09:30pm 11.4 5.1 9.1 86 1.2 NW 32 44 17 24 - - 0.0
27/09:00pm 11.9 5.4 9.1 83 1.4 WNW 33 44 18 24 - - 0.0
27/08:30pm 11.9 4.7 9.3 84 1.3 WNW 37 57 20 31 - - 0.0
27/08:21pm 11.9 5.7 10.1 89 0.9 WNW 33 52 18 28 - - 0.0
27/08:00pm 12.2 4.9 10.1 87 1.1 W 39 46 21 25 - - 0.0
27/07:34pm 13.1 4.8 10.1 82 1.6 WNW 44 65 24 35 - - 0.0
27/07:30pm 13.1 5.8 10.3 83 1.5 WNW 39 52 21 28 - - 0.0
27/07:00pm 13.5 6.4 11.0 85 1.3 WNW 39 52 21 28 - - 0.0
27/06:30pm 14.1 6.5 10.5 79 1.9 WNW 41 56 22 30 - - 0.0
27/06:00pm 14.9 9.7 10.1 73 2.6 W 28 48 15 26 - - 0.0
27/05:30pm 15.9 12.0 10.7 71 2.8 SW 22 33 12 18 - - 0.0
27/05:00pm 15.2 9.2 10.0 71 2.8 SW 32 44 17 24 - - 0.0
27/04:30pm 15.4 8.7 9.7 69 3.0 SW 35 50 19 27 - - 0.0
27/04:00pm 17.7 11.6 10.6 63 3.9 SW 33 44 18 24 - - 0.0
27/03:39pm 18.7 12.8 11.0 61 4.3 SW 33 52 18 28 - - 0.0
27/03:30pm 17.9 11.1 10.5 62 4.0 SW 37 50 20 27 - - 0.0
27/03:00pm 19.1 12.3 10.6 58 4.7 WSW 37 50 20 27 - - 0.0
27/02:40pm 20.4 14.6 10.8 54 5.3 SW 32 50 17 27 - - 0.0
27/02:30pm 20.6 14.2 10.7 53 5.5 WSW 35 52 19 28 - - 0.0
27/02:10pm 22.5 17.0 9.3 43 7.2 WSW 28 46 15 25 - - 0.0
27/02:00pm 24.8 18.6 6.1 30 9.8 NW 28 39 15 21 - - 0.0
27/01:30pm 26.4 19.7 7.4 30 10.3 NW 32 41 17 22 - - 0.0

Other formats

Comma delimited format used in spreadsheet applications
http://www.bom.gov.au/fwo/IDT60801/IDT60801.95958.axf

JavaScript Object Notation format (JSON) in row-major order
http://www.bom.gov.au/fwo/IDT60801/IDT60801.95958.json

Data quality

Most of these data are generated automatically and are frequently updated. Quality checks on data are not normally performed. It is possible for incorrect values to appear. Refer to information at About Latest Weather Observations and please check the disclaimer before using these data.